createdAt,value
2022-09-17T00:00:50.277Z,15.12
2022-09-17T00:03:17.749Z,15.02
2022-09-17T00:05:44.459Z,14.91
2022-09-17T00:08:16.717Z,14.86
2022-09-17T00:10:44.802Z,14.72
2022-09-17T00:13:11.747Z,14.88
2022-09-17T00:15:42.891Z,14.85
2022-09-17T00:18:09.906Z,14.91
2022-09-17T00:20:45.208Z,14.74
2022-09-17T00:23:13.319Z,14.98
2022-09-17T00:25:41.792Z,14.94
2022-09-17T00:28:08.510Z,14.95
2022-09-17T00:30:35.611Z,14.91
2022-09-17T00:33:02.250Z,14.90
2022-09-17T00:35:28.945Z,15.09
2022-09-17T00:37:55.545Z,14.88
2022-09-17T00:40:22.343Z,14.89
2022-09-17T00:42:49.548Z,14.36
2022-09-17T00:45:16.248Z,14.05
2022-09-17T00:47:47.706Z,14.53
2022-09-17T00:50:19.964Z,14.47
2022-09-17T00:52:50.976Z,14.56
2022-09-17T00:55:55.211Z,14.63
2022-09-17T00:58:23.573Z,14.77
2022-09-17T01:00:50.281Z,14.79
2022-09-17T01:03:17.283Z,14.77
2022-09-17T01:06:00.360Z,14.67
2022-09-17T01:08:27.145Z,14.52
2022-09-17T01:11:00.105Z,14.13
2022-09-17T01:14:01.974Z,14.28
2022-09-17T01:16:55.540Z,14.40
2022-09-17T01:19:40.783Z,14.40
2022-09-17T01:22:31.604Z,14.53
2022-09-17T01:25:13.595Z,14.46
2022-09-17T01:28:13.804Z,14.51
2022-09-17T01:31:11.148Z,14.13
2022-09-17T01:34:07.023Z,14.09
2022-09-17T01:37:00.085Z,13.99
2022-09-17T01:39:32.912Z,14.22
2022-09-17T01:42:13.035Z,14.16
2022-09-17T01:44:58.364Z,14.30
2022-09-17T01:47:42.274Z,14.10
2022-09-17T01:50:17.526Z,14.03
2022-09-17T01:52:49.094Z,13.88
2022-09-17T01:55:17.682Z,14.11
2022-09-17T01:57:58.739Z,14.10
2022-09-17T02:00:25.632Z,14.17
2022-09-17T02:03:13.864Z,14.06
2022-09-17T02:05:46.264Z,14.24
2022-09-17T02:08:26.277Z,13.88
2022-09-17T02:11:10.075Z,14.07
2022-09-17T02:14:13.576Z,13.92
2022-09-17T02:16:48.402Z,13.75
2022-09-17T02:19:26.292Z,13.62
2022-09-17T02:21:55.907Z,13.50
2022-09-17T02:24:28.621Z,13.60
2022-09-17T02:27:01.352Z,13.53
2022-09-17T02:29:38.978Z,13.52
2022-09-17T02:32:06.437Z,13.69
2022-09-17T02:34:33.543Z,13.78
2022-09-17T02:37:01.224Z,13.82
2022-09-17T02:39:28.083Z,13.81
2022-09-17T02:42:09.517Z,13.80
2022-09-17T02:45:03.888Z,13.87
2022-09-17T02:47:49.430Z,13.81
2022-09-17T02:50:22.176Z,13.67
2022-09-17T02:53:26.789Z,13.51
2022-09-17T02:56:34.253Z,13.52
2022-09-17T02:59:31.609Z,13.12
2022-09-17T03:02:28.147Z,12.76
2022-09-17T03:04:56.119Z,13.03
2022-09-17T03:07:24.074Z,12.76
2022-09-17T03:09:50.829Z,13.07
2022-09-17T03:12:18.123Z,13.05
2022-09-17T03:14:44.747Z,13.28
2022-09-17T03:17:12.238Z,12.96
2022-09-17T03:19:38.899Z,13.31
2022-09-17T03:22:05.536Z,13.34
2022-09-17T03:24:32.247Z,13.46
2022-09-17T03:26:58.889Z,13.30
2022-09-17T03:29:25.797Z,13.23
2022-09-17T03:31:52.465Z,12.97
2022-09-17T03:34:19.626Z,12.76
2022-09-17T03:36:46.379Z,13.00
2022-09-17T03:39:13.431Z,12.75
2022-09-17T03:41:40.173Z,13.04
2022-09-17T03:44:06.955Z,13.15
2022-09-17T03:46:33.659Z,12.99
2022-09-17T03:49:00.684Z,13.05
2022-09-17T03:51:27.629Z,13.01
2022-09-17T03:53:54.383Z,13.14
2022-09-17T03:56:21.080Z,13.20
2022-09-17T03:58:48.298Z,13.22
2022-09-17T04:01:14.991Z,13.24
2022-09-17T04:03:42.113Z,13.39
2022-09-17T04:06:08.916Z,13.39
2022-09-17T04:08:36.722Z,13.52
2022-09-17T04:11:03.497Z,13.50
2022-09-17T04:13:30.123Z,13.02
2022-09-17T04:15:56.997Z,13.10
2022-09-17T04:18:23.696Z,12.67
2022-09-17T04:20:50.383Z,13.00
2022-09-17T04:23:17.124Z,13.24
2022-09-17T04:25:43.733Z,13.09
2022-09-17T04:28:10.487Z,13.19
2022-09-17T04:30:37.166Z,13.22
2022-09-17T04:33:04.111Z,13.42
2022-09-17T04:35:30.853Z,13.36
2022-09-17T04:37:58.352Z,13.55
2022-09-17T04:40:27.209Z,13.44
2022-09-17T04:42:59.640Z,13.35
2022-09-17T04:45:26.623Z,13.48
2022-09-17T04:47:53.322Z,13.58
2022-09-17T04:50:20.691Z,13.35
2022-09-17T04:52:48.227Z,13.58
2022-09-17T04:55:15.707Z,13.58
2022-09-17T04:57:53.696Z,13.70
2022-09-17T05:00:22.403Z,13.97
2022-09-17T05:02:52.382Z,14.18
2022-09-17T05:05:20.548Z,14.41
2022-09-17T05:07:47.414Z,14.54
2022-09-17T05:10:17.059Z,14.72
2022-09-17T05:12:55.026Z,14.53
2022-09-17T05:15:23.333Z,14.52
2022-09-17T05:17:49.966Z,14.92
2022-09-17T05:20:17.635Z,15.02
2022-09-17T05:22:49.804Z,16.07
2022-09-17T05:25:18.150Z,17.82
2022-09-17T05:27:45.579Z,18.67
2022-09-17T05:30:13.192Z,19.03
2022-09-17T05:32:40.884Z,20.65
2022-09-17T05:35:09.066Z,21.32
2022-09-17T05:37:36.645Z,22.16
2022-09-17T05:40:07.107Z,22.93
2022-09-17T05:42:34.335Z,23.49
2022-09-17T05:45:01.050Z,24.14
2022-09-17T05:47:27.666Z,24.68
2022-09-17T05:49:54.368Z,25.10
2022-09-17T05:52:21.022Z,25.81
2022-09-17T05:54:48.657Z,26.30
2022-09-17T05:57:16.101Z,26.70
2022-09-17T05:59:42.850Z,27.35
2022-09-17T06:02:13.758Z,27.86
2022-09-17T06:04:40.710Z,28.05
2022-09-17T06:07:09.445Z,28.48
2022-09-17T06:09:41.107Z,28.98
2022-09-17T06:12:08.204Z,28.66
2022-09-17T06:14:34.887Z,29.21
2022-09-17T06:17:01.561Z,29.76
2022-09-17T06:19:28.628Z,30.14
2022-09-17T06:21:55.627Z,29.96
2022-09-17T06:24:22.456Z,30.81
2022-09-17T06:26:49.159Z,29.62
2022-09-17T06:29:15.960Z,30.50
2022-09-17T06:31:44.947Z,31.04
2022-09-17T06:34:12.449Z,29.45
2022-09-17T06:36:39.238Z,30.12
2022-09-17T06:39:06.239Z,30.62
2022-09-17T06:41:33.399Z,30.66
2022-09-17T06:44:00.250Z,29.63
2022-09-17T06:46:27.573Z,28.32
2022-09-17T06:48:54.254Z,27.52
2022-09-17T06:51:22.649Z,28.07
2022-09-17T06:53:49.475Z,28.12
2022-09-17T06:56:16.294Z,28.18
2022-09-17T06:58:43.873Z,28.07
2022-09-17T07:01:12.257Z,28.27
2022-09-17T07:03:39.271Z,28.87
2022-09-17T07:06:10.150Z,29.24
2022-09-17T07:08:37.909Z,27.82
2022-09-17T07:11:04.639Z,28.63
2022-09-17T07:13:31.314Z,29.08
2022-09-17T07:16:00.724Z,29.48
2022-09-17T07:18:27.723Z,28.64
2022-09-17T07:20:55.256Z,28.89
2022-09-17T07:23:24.057Z,27.35
2022-09-17T07:26:02.311Z,27.32
2022-09-17T07:28:29.310Z,27.94
2022-09-17T07:30:57.061Z,28.30
2022-09-17T07:33:26.775Z,28.91
2022-09-17T07:36:01.977Z,29.12
2022-09-17T07:38:30.146Z,29.23
2022-09-17T07:41:06.192Z,29.53
2022-09-17T07:43:35.047Z,30.24
2022-09-17T07:46:04.074Z,29.62
2022-09-17T07:48:31.395Z,29.70
2022-09-17T07:50:58.563Z,30.48
2022-09-17T07:53:25.891Z,30.40
2022-09-17T07:56:00.205Z,30.61
2022-09-17T07:58:36.523Z,30.19
2022-09-17T08:01:08.959Z,30.26
2022-09-17T08:03:36.592Z,29.67
2022-09-17T08:06:07.141Z,31.37
2022-09-17T08:08:35.950Z,30.99
2022-09-17T08:11:08.300Z,30.82
2022-09-17T08:13:35.345Z,30.14
2022-09-17T08:16:07.602Z,30.05
2022-09-17T08:18:35.833Z,28.53
2022-09-17T08:21:05.150Z,26.77
2022-09-17T08:23:34.192Z,28.53
2022-09-17T08:26:01.341Z,28.41
2022-09-17T08:28:31.989Z,30.32
2022-09-17T08:31:04.001Z,27.58
2022-09-17T08:33:35.833Z,28.24
2022-09-17T08:36:03.553Z,29.25
2022-09-17T08:38:38.363Z,29.09
2022-09-17T08:41:19.497Z,29.84
2022-09-17T08:43:50.252Z,29.48
2022-09-17T08:46:16.902Z,30.61
2022-09-17T08:48:47.997Z,31.24
2022-09-17T08:51:36.535Z,31.04
2022-09-17T08:54:21.397Z,31.02
2022-09-17T08:56:55.038Z,30.42
2022-09-17T09:00:03.181Z,30.50
2022-09-17T09:02:45.336Z,30.15
2022-09-17T09:05:26.889Z,29.83
2022-09-17T09:08:00.661Z,30.33
2022-09-17T09:10:33.747Z,30.73
2022-09-17T09:13:01.462Z,30.38
2022-09-17T09:15:28.110Z,29.34
2022-09-17T09:17:55.770Z,29.11
2022-09-17T09:20:39.414Z,29.14
2022-09-17T09:23:20.044Z,30.31
2022-09-17T09:26:13.373Z,29.17
2022-09-17T09:28:58.436Z,30.45
2022-09-17T09:31:25.068Z,29.96
2022-09-17T09:33:52.622Z,29.71
2022-09-17T09:36:22.059Z,29.80
2022-09-17T09:38:58.014Z,29.43
2022-09-17T09:41:36.879Z,29.89
2022-09-17T09:44:12.749Z,29.63
2022-09-17T09:46:51.731Z,29.36
2022-09-17T09:49:30.266Z,28.85
2022-09-17T09:52:15.767Z,27.79
2022-09-17T09:54:42.395Z,27.96
2022-09-17T09:57:39.910Z,27.81
2022-09-17T10:00:21.887Z,28.44
2022-09-17T10:02:56.015Z,28.39
2022-09-17T10:05:23.747Z,28.16
2022-09-17T10:07:50.865Z,28.03
2022-09-17T10:10:17.626Z,27.86
2022-09-17T10:12:44.933Z,28.42
2022-09-17T10:15:31.851Z,27.77
2022-09-17T10:18:31.009Z,27.68
2022-09-17T10:21:00.136Z,27.85
2022-09-17T10:23:30.233Z,28.09
2022-09-17T10:25:57.516Z,28.67
2022-09-17T10:28:49.010Z,29.20
2022-09-17T10:31:16.735Z,28.70
2022-09-17T10:34:01.178Z,28.46
2022-09-17T10:36:41.534Z,28.60
2022-09-17T10:39:26.901Z,27.50
2022-09-17T10:41:58.583Z,27.93
2022-09-17T10:44:31.108Z,27.82
2022-09-17T10:47:04.064Z,28.18
2022-09-17T10:50:01.612Z,29.04
2022-09-17T10:52:38.019Z,29.27
2022-09-17T10:55:19.671Z,28.72
2022-09-17T10:58:11.593Z,27.29
2022-09-17T11:00:53.148Z,26.80
2022-09-17T11:03:37.595Z,26.30
2022-09-17T11:06:30.418Z,26.71
2022-09-17T11:09:21.761Z,26.72
2022-09-17T11:12:06.338Z,26.73
2022-09-17T11:15:01.777Z,27.16
2022-09-17T11:17:50.180Z,27.40
2022-09-17T11:20:22.931Z,27.56
2022-09-17T11:23:04.995Z,27.26
2022-09-17T11:25:36.573Z,27.32
2022-09-17T11:28:16.499Z,27.63
2022-09-17T11:30:55.109Z,28.05
2022-09-17T11:33:28.179Z,27.34
2022-09-17T11:36:08.539Z,27.49
2022-09-17T11:38:43.541Z,27.85
2022-09-17T11:41:20.390Z,28.00
2022-09-17T11:44:12.999Z,27.49
2022-09-17T11:46:54.645Z,27.67
2022-09-17T11:49:35.844Z,28.14
2022-09-17T11:52:09.636Z,28.05
2022-09-17T11:54:44.345Z,27.84
2022-09-17T11:57:18.728Z,27.97
2022-09-17T11:59:55.408Z,27.42
2022-09-17T12:02:25.309Z,27.56
2022-09-17T12:04:58.055Z,27.42
2022-09-17T12:07:48.653Z,27.33
2022-09-17T12:10:42.488Z,27.49
2022-09-17T12:13:19.099Z,27.21
2022-09-17T12:15:53.389Z,27.25
2022-09-17T12:18:33.497Z,27.22
2022-09-17T12:21:04.925Z,27.64
2022-09-17T12:23:47.585Z,27.06
2022-09-17T12:26:20.273Z,27.85
2022-09-17T12:28:56.125Z,27.11
2022-09-17T12:31:30.146Z,27.12
2022-09-17T12:34:23.325Z,26.89
2022-09-17T12:37:11.435Z,26.61
2022-09-17T12:39:38.109Z,26.74
2022-09-17T12:42:26.392Z,26.76
2022-09-17T12:45:01.873Z,27.08
2022-09-17T12:47:34.627Z,27.15
2022-09-17T12:50:30.927Z,27.26
2022-09-17T12:53:00.540Z,26.59
2022-09-17T12:55:42.339Z,26.43
2022-09-17T12:58:22.773Z,26.28
2022-09-17T13:00:55.954Z,26.06
2022-09-17T13:03:35.821Z,25.88
2022-09-17T13:06:20.511Z,25.65
2022-09-17T13:09:06.273Z,25.85
2022-09-17T13:12:03.628Z,25.91
2022-09-17T13:14:56.998Z,25.78
2022-09-17T13:17:52.421Z,25.84
2022-09-17T13:20:33.768Z,25.75
2022-09-17T13:23:00.982Z,25.68
2022-09-17T13:25:27.773Z,25.90
2022-09-17T13:28:11.844Z,25.98
2022-09-17T13:31:02.002Z,26.15
2022-09-17T13:33:52.874Z,26.33
2022-09-17T13:36:39.838Z,25.90
2022-09-17T13:39:10.322Z,25.57
2022-09-17T13:41:41.354Z,25.71
2022-09-17T13:44:10.891Z,25.93
2022-09-17T13:46:39.383Z,26.09
2022-09-17T13:49:14.898Z,25.60
2022-09-17T13:51:41.547Z,25.63
2022-09-17T13:54:11.261Z,25.27
2022-09-17T13:56:43.158Z,25.36
2022-09-17T13:59:15.828Z,25.43
2022-09-17T14:01:51.279Z,25.54
2022-09-17T14:04:42.459Z,25.57
2022-09-17T14:07:24.097Z,25.58
2022-09-17T14:10:02.090Z,25.56
2022-09-17T14:12:41.395Z,25.38
2022-09-17T14:15:37.546Z,25.46
2022-09-17T14:18:29.090Z,25.17
2022-09-17T14:21:14.917Z,24.97
2022-09-17T14:23:55.479Z,24.99
2022-09-17T14:26:36.240Z,24.77
2022-09-17T14:29:31.147Z,24.52
2022-09-17T14:31:58.392Z,24.42
2022-09-17T14:34:26.707Z,24.47
2022-09-17T14:36:54.928Z,24.50
2022-09-17T14:39:29.058Z,24.22
2022-09-17T14:41:56.434Z,24.43
2022-09-17T14:44:27.934Z,24.39
2022-09-17T14:47:01.198Z,24.14
2022-09-17T14:49:32.631Z,24.07
2022-09-17T14:52:01.805Z,24.06
2022-09-17T14:54:35.104Z,24.00
2022-09-17T14:57:09.661Z,23.95
2022-09-17T14:59:52.807Z,23.92
2022-09-17T15:02:44.308Z,23.74
2022-09-17T15:05:38.455Z,23.77
2022-09-17T15:08:05.800Z,23.77
2022-09-17T15:10:32.868Z,23.66
2022-09-17T15:13:00.505Z,23.67
2022-09-17T15:15:29.203Z,23.71
2022-09-17T15:17:55.876Z,23.51
2022-09-17T15:20:31.449Z,23.46
2022-09-17T15:23:13.071Z,23.47
2022-09-17T15:25:41.560Z,23.45
2022-09-17T15:28:36.402Z,23.43
2022-09-17T15:31:05.736Z,23.40
2022-09-17T15:36:23.673Z,23.34
2022-09-17T15:38:51.452Z,23.26
2022-09-17T15:41:36.994Z,23.08
2022-09-17T15:44:33.237Z,22.82
2022-09-17T15:47:34.914Z,22.81
2022-09-17T15:50:20.326Z,22.66
2022-09-17T15:52:48.657Z,22.51
2022-09-17T15:55:45.984Z,22.69
2022-09-17T15:58:41.579Z,22.20
2022-09-17T16:01:14.283Z,19.23
2022-09-17T16:03:40.952Z,17.55
2022-09-17T16:06:19.861Z,17.28
2022-09-17T16:08:49.239Z,17.01
2022-09-17T16:11:17.043Z,16.59
2022-09-17T16:13:46.699Z,16.68
2022-09-17T16:16:17.319Z,16.62
2022-09-17T16:18:44.146Z,16.28
2022-09-17T16:21:11.823Z,15.97
2022-09-17T16:23:38.483Z,15.69
2022-09-17T16:26:06.406Z,15.88
2022-09-17T16:28:33.907Z,15.90
2022-09-17T16:31:00.587Z,15.97
2022-09-17T16:33:28.388Z,16.13
2022-09-17T16:35:58.766Z,16.00
2022-09-17T16:38:26.477Z,15.68
2022-09-17T16:40:53.155Z,15.60
2022-09-17T16:43:19.769Z,15.51
2022-09-17T16:46:06.016Z,15.31
2022-09-17T16:48:33.243Z,15.58
2022-09-17T16:51:01.645Z,15.62
2022-09-17T16:53:28.249Z,15.71
2022-09-17T16:55:54.880Z,15.42
2022-09-17T16:58:21.580Z,15.44
2022-09-17T17:00:48.252Z,15.28
2022-09-17T17:03:15.840Z,15.55
2022-09-17T17:05:43.524Z,15.70
2022-09-17T17:08:10.694Z,15.77
2022-09-17T17:10:40.661Z,15.37
2022-09-17T17:13:07.283Z,15.23
2022-09-17T17:15:34.000Z,15.05
2022-09-17T17:18:00.704Z,15.43
2022-09-17T17:20:27.448Z,15.06
2022-09-17T17:22:55.360Z,15.09
2022-09-17T17:25:23.789Z,15.19
2022-09-17T17:27:50.780Z,15.01
2022-09-17T17:30:17.811Z,15.23
2022-09-17T17:32:48.922Z,15.54
2022-09-17T17:35:15.787Z,15.81
2022-09-17T17:37:42.547Z,15.99
2022-09-17T17:40:10.391Z,16.12
2022-09-17T17:42:39.639Z,15.91
2022-09-17T17:45:07.928Z,15.81
2022-09-17T17:47:34.938Z,15.55
2022-09-17T17:50:01.977Z,15.31
2022-09-17T17:52:28.885Z,15.10
2022-09-17T17:54:55.495Z,15.18
2022-09-17T17:57:22.225Z,15.12
2022-09-17T17:59:49.464Z,15.42
2022-09-17T18:02:16.246Z,15.56
2022-09-17T18:04:43.461Z,15.54
2022-09-17T18:07:10.069Z,15.65
2022-09-17T18:09:36.772Z,15.42
2022-09-17T18:12:03.482Z,15.35
2022-09-17T18:14:30.194Z,14.98
2022-09-17T18:16:56.825Z,15.03
2022-09-17T18:19:23.473Z,15.08
2022-09-17T18:21:50.318Z,14.78
2022-09-17T18:24:17.115Z,14.85
2022-09-17T18:26:43.788Z,14.69
2022-09-17T18:29:11.783Z,14.52
2022-09-17T18:31:38.949Z,14.54
2022-09-17T18:34:12.028Z,14.49
2022-09-17T18:36:39.823Z,14.77
2022-09-17T18:39:52.915Z,14.90
2022-09-17T18:41:56.934Z,15.06
2022-09-17T18:44:23.647Z,15.20
2022-09-17T18:46:51.325Z,15.28
2022-09-17T18:49:18.291Z,15.24
2022-09-17T18:51:45.051Z,15.00
2022-09-17T18:54:14.942Z,14.84
2022-09-17T18:56:42.177Z,14.91
2022-09-17T18:59:09.826Z,14.66
2022-09-17T19:01:36.663Z,14.76
2022-09-17T19:04:03.888Z,14.76
2022-09-17T19:06:32.279Z,14.92
2022-09-17T19:09:03.577Z,14.97
2022-09-17T19:11:30.382Z,15.03
2022-09-17T19:13:57.111Z,14.93
2022-09-17T19:16:24.100Z,15.09
2022-09-17T19:18:50.930Z,15.21
2022-09-17T19:21:26.014Z,15.29
2022-09-17T19:23:53.335Z,15.23
2022-09-17T19:26:26.059Z,15.28
2022-09-17T19:28:54.724Z,15.07
2022-09-17T19:31:22.362Z,14.59
2022-09-17T19:33:50.599Z,14.61
2022-09-17T19:36:18.815Z,14.51
2022-09-17T19:38:46.445Z,14.24
2022-09-17T19:41:18.741Z,14.45
2022-09-17T19:43:45.710Z,14.59
2022-09-17T19:46:13.996Z,14.50
2022-09-17T19:48:45.063Z,14.15
2022-09-17T19:51:12.789Z,14.36
2022-09-17T19:53:40.524Z,14.28
2022-09-17T19:56:10.253Z,14.11
2022-09-17T19:58:36.986Z,14.18
2022-09-17T20:01:03.668Z,14.13
2022-09-17T20:03:30.333Z,14.16
2022-09-17T20:06:06.226Z,14.23
2022-09-17T20:08:35.059Z,14.11
2022-09-17T20:11:06.495Z,14.15
2022-09-17T20:13:33.340Z,13.75
2022-09-17T20:16:07.624Z,13.92
2022-09-17T20:18:35.253Z,14.08
2022-09-17T20:21:14.322Z,14.07
2022-09-17T20:23:41.503Z,13.92
2022-09-17T20:26:08.979Z,14.06
2022-09-17T20:28:36.017Z,13.60
2022-09-17T20:31:08.406Z,13.59
2022-09-17T20:33:35.175Z,13.62
2022-09-17T20:36:04.106Z,13.68
2022-09-17T20:41:18.803Z,13.78
2022-09-17T20:43:49.230Z,13.84
2022-09-17T20:46:17.326Z,14.03
2022-09-17T20:48:44.494Z,14.04
2022-09-17T20:51:16.578Z,13.93
2022-09-17T20:53:43.379Z,13.46
2022-09-17T20:56:12.254Z,13.39
2022-09-17T20:58:45.447Z,13.46
2022-09-17T21:01:20.511Z,13.56
2022-09-17T21:03:50.276Z,13.59
2022-09-17T21:06:22.577Z,13.72
2022-09-17T21:08:50.879Z,13.60
2022-09-17T21:11:19.057Z,13.37
2022-09-17T21:13:46.283Z,12.93
2022-09-17T21:16:13.736Z,13.04
2022-09-17T21:18:41.827Z,13.03
2022-09-17T21:21:11.596Z,12.99
2022-09-17T21:23:39.683Z,13.05
2022-09-17T21:26:15.302Z,13.14
2022-09-17T21:28:44.687Z,13.38
2022-09-17T21:31:14.472Z,13.38
2022-09-17T21:33:42.522Z,13.35
2022-09-17T21:36:13.654Z,13.45
2022-09-17T21:38:40.401Z,13.33
2022-09-17T21:41:15.499Z,13.35
2022-09-17T21:43:43.144Z,13.40
2022-09-17T21:46:12.657Z,13.17
2022-09-17T21:48:45.121Z,12.94
2022-09-17T21:51:14.598Z,12.88
2022-09-17T21:53:41.474Z,12.74
2022-09-17T21:56:08.087Z,12.65
2022-09-17T21:58:35.545Z,12.73
2022-09-17T22:01:11.701Z,12.86
2022-09-17T22:03:38.547Z,12.90
2022-09-17T22:06:08.378Z,12.82
2022-09-17T22:08:35.488Z,12.74
2022-09-17T22:11:11.407Z,12.86
2022-09-17T22:13:38.723Z,12.70
2022-09-17T22:16:07.703Z,12.79
2022-09-17T22:18:37.385Z,12.69
2022-09-17T22:21:19.116Z,12.55
2022-09-17T22:23:45.797Z,12.75
2022-09-17T22:26:12.424Z,12.54
2022-09-17T22:28:39.399Z,12.63
2022-09-17T22:31:08.739Z,12.67
2022-09-17T22:33:38.110Z,12.62
2022-09-17T22:36:10.628Z,12.67
2022-09-17T22:38:37.656Z,12.54
2022-09-17T22:41:17.375Z,12.56
2022-09-17T22:43:44.559Z,12.72
2022-09-17T22:46:18.277Z,12.81
2022-09-17T22:48:45.429Z,12.92
2022-09-17T22:51:13.528Z,12.92
2022-09-17T22:53:41.135Z,12.85
2022-09-17T22:56:13.618Z,12.64
2022-09-17T22:58:40.599Z,12.61
2022-09-17T23:01:15.902Z,12.63
2022-09-17T23:03:43.681Z,12.38
2022-09-17T23:06:12.846Z,12.58
2022-09-17T23:08:40.163Z,12.53
2022-09-17T23:11:09.500Z,12.62
2022-09-17T23:13:36.502Z,12.67
2022-09-17T23:16:08.693Z,12.65
2022-09-17T23:18:36.514Z,12.74
2022-09-17T23:21:07.844Z,12.74
2022-09-17T23:23:36.259Z,12.96
2022-09-17T23:26:11.538Z,12.52
2022-09-17T23:28:39.323Z,12.61
2022-09-17T23:31:10.795Z,12.66
2022-09-17T23:33:37.727Z,12.66
2022-09-17T23:36:12.823Z,12.63
2022-09-17T23:38:40.272Z,12.52
2022-09-17T23:41:17.158Z,12.75
2022-09-17T23:43:46.941Z,12.72
2022-09-17T23:46:14.067Z,12.68
2022-09-17T23:48:41.134Z,12.70
2022-09-17T23:51:08.528Z,12.59
2022-09-17T23:53:35.910Z,12.58
2022-09-17T23:56:03.843Z,12.86
2022-09-17T23:58:31.975Z,12.75
